Snoqualmie River: South Fork station

back to: Snoqualmie river
South Fork station Summary - (NOAA Hydrograph: GARW1)
Latest reading:
Tue10/20 11:15 pm 11.73 ft 376 cfs (-16/hr)
Past 24hr max:
Tue10/20 12:30 am 12.17 ft 617 cfs
Forecasted crests: (published Tue 10/20/20 02:15 pm)
Wed10/21 05:00 am 11.88 ft 453 cfs
Fri10/23 11:00 pm 11.51 ft 277 cfs
Tue10/27 05:00 pm 11.08 ft 156 cfs
Wed10/28 11:00 pm 11.06 ft 150 cfs

South Fork station Details

Latest Readings

Last 100 Readings:
Tue10/20 11:15 pm 11.73 ft 376 cfs
Tue10/20 11:00 pm 11.74 ft 380 cfs
Tue10/20 10:45 pm 11.74 ft 380 cfs
Tue10/20 10:30 pm 11.74 ft 380 cfs
Tue10/20 10:15 pm 11.75 ft 385 cfs
Tue10/20 10:00 pm 11.76 ft 390 cfs
Tue10/20 09:45 pm 11.76 ft 390 cfs
Tue10/20 09:30 pm 11.76 ft 390 cfs
Tue10/20 09:15 pm 11.77 ft 395 cfs
Tue10/20 09:00 pm 11.75 ft 385 cfs
Tue10/20 08:45 pm 11.76 ft 390 cfs
Tue10/20 08:30 pm 11.78 ft 400 cfs
Tue10/20 08:15 pm 11.79 ft 405 cfs
Tue10/20 08:00 pm 11.76 ft 390 cfs
Tue10/20 07:45 pm 11.77 ft 395 cfs
Tue10/20 07:30 pm 11.8 ft 410 cfs
Tue10/20 07:15 pm 11.77 ft 395 cfs
Tue10/20 07:00 pm 11.79 ft 405 cfs
Tue10/20 06:45 pm 11.81 ft 415 cfs
Tue10/20 06:30 pm 11.79 ft 405 cfs
Tue10/20 06:15 pm 11.81 ft 415 cfs
Tue10/20 06:00 pm 11.82 ft 420 cfs
Tue10/20 05:45 pm 11.8 ft 410 cfs
Tue10/20 05:30 pm 11.81 ft 415 cfs
Tue10/20 05:15 pm 11.82 ft 420 cfs
Tue10/20 05:00 pm 11.81 ft 415 cfs
Tue10/20 04:45 pm 11.81 ft 415 cfs
Tue10/20 04:30 pm 11.82 ft 420 cfs
Tue10/20 04:15 pm 11.83 ft 425 cfs
Tue10/20 04:00 pm 11.82 ft 420 cfs
Tue10/20 03:45 pm 11.87 ft 446 cfs
Tue10/20 03:30 pm 11.85 ft 435 cfs
Tue10/20 03:15 pm 11.87 ft 446 cfs
Tue10/20 03:00 pm 11.87 ft 446 cfs
Tue10/20 02:45 pm 11.87 ft 446 cfs
Tue10/20 02:30 pm 11.87 ft 446 cfs
Tue10/20 02:15 pm 11.88 ft 451 cfs
Tue10/20 02:00 pm 11.87 ft 446 cfs
Tue10/20 01:45 pm 11.9 ft 462 cfs
Tue10/20 01:30 pm 11.89 ft 456 cfs
Tue10/20 01:15 pm 11.89 ft 456 cfs
Tue10/20 01:00 pm 11.91 ft 467 cfs
Tue10/20 12:45 pm 11.9 ft 462 cfs
Tue10/20 12:30 pm 11.91 ft 467 cfs
Tue10/20 12:15 pm 11.93 ft 478 cfs
Tue10/20 12:00 pm 11.92 ft 472 cfs
Tue10/20 11:45 am 11.93 ft 478 cfs
Tue10/20 11:30 am 11.95 ft 489 cfs
Tue10/20 11:15 am 11.93 ft 478 cfs
Tue10/20 11:00 am 11.94 ft 483 cfs
Tue10/20 10:45 am 11.93 ft 478 cfs
Tue10/20 10:30 am 11.93 ft 478 cfs
Tue10/20 10:15 am 11.97 ft 500 cfs
Tue10/20 10:00 am 11.96 ft 494 cfs
Tue10/20 09:45 am 11.97 ft 500 cfs
Tue10/20 09:30 am 11.98 ft 505 cfs
Tue10/20 09:15 am 11.99 ft 511 cfs
Tue10/20 09:00 am 11.97 ft 500 cfs
Tue10/20 08:45 am 11.97 ft 500 cfs
Tue10/20 08:30 am 12.0 ft 517 cfs
Tue10/20 08:15 am 11.97 ft 500 cfs
Tue10/20 08:00 am 11.98 ft 505 cfs
Tue10/20 07:45 am 12.01 ft 522 cfs
Tue10/20 07:30 am 11.98 ft 505 cfs
Tue10/20 07:15 am 12.0 ft 517 cfs
Tue10/20 07:00 am 12.03 ft 534 cfs
Tue10/20 06:45 am 12.01 ft 522 cfs
Tue10/20 06:30 am 12.01 ft 522 cfs
Tue10/20 06:15 am 12.05 ft 545 cfs
Tue10/20 06:00 am 12.02 ft 528 cfs
Tue10/20 05:45 am 12.08 ft 563 cfs
Tue10/20 05:30 am 12.07 ft 557 cfs
Tue10/20 05:15 am 12.07 ft 557 cfs
Tue10/20 05:00 am 12.08 ft 563 cfs
Tue10/20 04:45 am 12.06 ft 551 cfs
Tue10/20 04:30 am 12.07 ft 557 cfs
Tue10/20 04:15 am 12.1 ft 575 cfs
Tue10/20 04:00 am 12.11 ft 581 cfs
Tue10/20 03:45 am 12.12 ft 587 cfs
Tue10/20 03:30 am 12.13 ft 593 cfs
Tue10/20 03:15 am 12.1 ft 575 cfs
Tue10/20 03:00 am 12.14 ft 599 cfs
Tue10/20 02:45 am 12.12 ft 587 cfs
Tue10/20 02:30 am 12.13 ft 593 cfs
Tue10/20 02:15 am 12.15 ft 605 cfs
Tue10/20 02:00 am 12.13 ft 593 cfs
Tue10/20 01:45 am 12.16 ft 611 cfs
Tue10/20 01:30 am 12.17 ft 617 cfs
Tue10/20 01:15 am 12.15 ft 605 cfs
Tue10/20 01:00 am 12.14 ft 599 cfs
Tue10/20 12:45 am 12.15 ft 605 cfs
Tue10/20 12:30 am 12.17 ft 617 cfs
Tue10/20 12:15 am 12.14 ft 599 cfs
Tue10/20 12:00 am 12.16 ft 611 cfs
Mon10/19 11:45 pm 12.16 ft 611 cfs
Mon10/19 11:30 pm 12.16 ft 611 cfs
Mon10/19 11:15 pm 12.16 ft 611 cfs
Mon10/19 11:00 pm 12.13 ft 593 cfs
Mon10/19 10:45 pm 12.11 ft 581 cfs
Mon10/19 10:30 pm 12.13 ft 593 cfs

Latest Forecasts

Currently Forecasted Readings:
Tue10/20 05:00 pm 11.8 ft 412 cfs
Tue10/20 11:00 pm 11.84 ft 429 cfs
Wed10/21 05:00 am 11.88 ft 453 cfs
Wed10/21 11:00 am 11.87 ft 445 cfs
Wed10/21 05:00 pm 11.86 ft 438 cfs
Wed10/21 11:00 pm 11.77 ft 397 cfs
Thu10/22 05:00 am 11.7 ft 362 cfs
Thu10/22 11:00 am 11.64 ft 334 cfs
Thu10/22 05:00 pm 11.59 ft 313 cfs
Thu10/22 11:00 pm 11.55 ft 296 cfs
Fri10/23 05:00 am 11.52 ft 280 cfs
Fri10/23 11:00 am 11.48 ft 268 cfs
Fri10/23 05:00 pm 11.49 ft 269 cfs
Fri10/23 11:00 pm 11.51 ft 277 cfs
Sat10/24 05:00 am 11.44 ft 254 cfs
Sat10/24 11:00 am 11.38 ft 237 cfs
Sat10/24 05:00 pm 11.34 ft 223 cfs
Sat10/24 11:00 pm 11.3 ft 213 cfs
Sun10/25 05:00 am 11.27 ft 204 cfs
Sun10/25 11:00 am 11.24 ft 196 cfs
Sun10/25 05:00 pm 11.21 ft 188 cfs
Sun10/25 11:00 pm 11.19 ft 181 cfs
Mon10/26 05:00 am 11.16 ft 175 cfs
Mon10/26 11:00 am 11.14 ft 169 cfs
Mon10/26 05:00 pm 11.12 ft 164 cfs
Mon10/26 11:00 pm 11.1 ft 159 cfs
Tue10/27 05:00 am 11.08 ft 155 cfs
Tue10/27 11:00 am 11.07 ft 152 cfs
Tue10/27 05:00 pm 11.08 ft 156 cfs
Tue10/27 11:00 pm 11.08 ft 155 cfs
Wed10/28 05:00 am 11.07 ft 153 cfs
Wed10/28 11:00 am 11.06 ft 150 cfs
Wed10/28 05:00 pm 11.05 ft 148 cfs
Wed10/28 11:00 pm 11.06 ft 150 cfs
Thu10/29 05:00 am 11.04 ft 146 cfs
Thu10/29 11:00 am 11.05 ft 148 cfs
Thu10/29 05:00 pm 11.37 ft 232 cfs
Thu10/29 11:00 pm 11.67 ft 348 cfs
Fri10/30 05:00 am 11.81 ft 417 cfs

Snoqualmie River flood gauge data supplied by the
National Weather Service Northwest River Forecast Center.

Sign up for Floodzilla alerts.